MSC Clorinda — 3FDW7 — position and weather

sailwx.info

Track history (hours):
 
Tides and Currents Weather Stations Pressure Air Temp Water Temp Dewpoint Dewpoint Depression Visibility Wind Speed Wind Dir Waves Ship Positions

MSC Clorinda

Last reported at 2017-Nov-19 18:42 UTC. Time now 2017-Nov-22 07:36 UTC.
Position N 35°41' E 024°14'.

Length 366 m; draft 13 m.

Type: Ship (hazmat cat A). MMSI: 373233000.

Date/timePositionNaut miles runAvg speedWind from/ knotsBaromVisibWave heightAir tempDewpointWater temp
2017-Nov-19 18:42N 35°41' E 024°14'417.7
2017-Nov-19 18:30N 35°40' E 024°18'918.0
2017-Nov-19 17:58N 35°39' E 024°30'47418.9
2017-Nov-18 16:49N 34°08' E 033°57'1019.6
2017-Nov-18 16:18N 34°06' E 034°09'619.7
2017-Nov-18 16:00N 34°05' E 034°16'1019.5
2017-Nov-18 15:30N 34°03' E 034°28'1019.9
2017-Nov-18 15:00N 34°01' E 034°40'1019.7
2017-Nov-18 14:29N 33°59' E 034°52'919.5
2017-Nov-18 14:00N 33°57' E 035°03'1019.6
2017-Nov-18 13:30N 33°56' E 035°15'26 0.7
2017-Nov-17 01:27N 33°38' E 034°53'919.0
2017-Nov-17 00:57N 33°31' E 034°45'919.0
2017-Nov-17 00:30N 33°25' E 034°38'918.7
2017-Nov-17 00:00N 33°18' E 034°30'1018.7
2017-Nov-16 23:29N 33°11' E 034°22'918.5
2017-Nov-16 23:00N 33°05' E 034°15'1118.5
2017-Nov-16 22:26N 32°57' E 034°06'818.6
2017-Nov-16 22:00N 32°51' E 033°60'918.7
2017-Nov-16 21:30N 32°44' E 033°52'918.9
2017-Nov-16 21:00N 32°38' E 033°44'919.0
2017-Nov-16 20:30N 32°31' E 033°36'918.8
2017-Nov-16 20:00N 32°24' E 033°28'918.7
2017-Nov-16 19:30N 32°18' E 033°21'918.6
2017-Nov-16 19:00N 32°11' E 033°13'1318.8
2017-Nov-16 18:19N 32°01' E 033°02'618.8
2017-Nov-16 18:00N 31°57' E 032°58'918.7
2017-Nov-16 17:30N 31°50' E 032°50'2117.8
2017-Nov-16 16:19N 31°38' E 032°30'617.2
2017-Nov-16 15:58N 31°35' E 032°24'816.5
2017-Nov-16 15:30N 31°27' E 032°25'713.7
2017-Nov-16 15:00N 31°20' E 032°23'611.4
2017-Nov-16 14:30N 31°15' E 032°22'2 4.3
2017-Nov-16 13:58N 31°12' E 032°21'0 0.1
2017-Nov-16 13:28N 31°12' E 032°21'0 0.0
2017-Nov-16 13:01N 31°12' E 032°21'0 0.0
2017-Nov-16 12:28N 31°12' E 032°21'0 0.0
2017-Nov-16 11:52N 31°12' E 032°21'0 0.0
2017-Nov-16 11:28N 31°12' E 032°21'0 0.0
2017-Nov-16 10:55N 31°12' E 032°21'0 0.0
2017-Nov-16 06:28N 31°12' E 032°21'0 0.0
2017-Nov-16 05:52N 31°12' E 032°21'0 0.0
2017-Nov-16 05:28N 31°12' E 032°21'0 0.0
2017-Nov-16 04:58N 31°12' E 032°21'0 0.0
2017-Nov-16 04:28N 31°12' E 032°21'0 0.0
2017-Nov-16 03:58N 31°12' E 032°21'0 0.0
2017-Nov-16 03:25N 31°12' E 032°21'18 1.5
2017-Nov-15 15:17N 30°55' E 032°19'3 9.8
2017-Nov-15 15:00N 30°52' E 032°19'  
Track history (hours):
 
Tides and Currents Weather Stations Pressure Air Temp Water Temp Dewpoint Dewpoint Depression Visibility Wind Speed Wind Dir Waves Ship Positions

MSC Clorinda

Last reported at 2017-Nov-19 18:42 UTC. Time now 2017-Nov-22 07:36 UTC.
Position N 35°41' E 024°14'.

Length 366 m; draft 13 m.

Type: Ship (hazmat cat A). MMSI: 373233000.

Date/timePositionNaut miles runAvg speedWind from/ knotsBaromVisibWave heightAir tempDewpointWater temp
2017-Nov-19 18:42N 35°41' E 024°14'417.7
2017-Nov-19 18:30N 35°40' E 024°18'918.0
2017-Nov-19 17:58N 35°39' E 024°30'47418.9
2017-Nov-18 16:49N 34°08' E 033°57'1019.6
2017-Nov-18 16:18N 34°06' E 034°09'619.7
2017-Nov-18 16:00N 34°05' E 034°16'1019.5
2017-Nov-18 15:30N 34°03' E 034°28'1019.9
2017-Nov-18 15:00N 34°01' E 034°40'1019.7
2017-Nov-18 14:29N 33°59' E 034°52'919.5
2017-Nov-18 14:00N 33°57' E 035°03'1019.6
2017-Nov-18 13:30N 33°56' E 035°15'26 0.7
2017-Nov-17 01:27N 33°38' E 034°53'919.0
2017-Nov-17 00:57N 33°31' E 034°45'919.0
2017-Nov-17 00:30N 33°25' E 034°38'918.7
2017-Nov-17 00:00N 33°18' E 034°30'1018.7
2017-Nov-16 23:29N 33°11' E 034°22'918.5
2017-Nov-16 23:00N 33°05' E 034°15'1118.5
2017-Nov-16 22:26N 32°57' E 034°06'818.6
2017-Nov-16 22:00N 32°51' E 033°60'918.7
2017-Nov-16 21:30N 32°44' E 033°52'918.9
2017-Nov-16 21:00N 32°38' E 033°44'919.0
2017-Nov-16 20:30N 32°31' E 033°36'918.8
2017-Nov-16 20:00N 32°24' E 033°28'918.7
2017-Nov-16 19:30N 32°18' E 033°21'918.6
2017-Nov-16 19:00N 32°11' E 033°13'1318.8
2017-Nov-16 18:19N 32°01' E 033°02'618.8
2017-Nov-16 18:00N 31°57' E 032°58'918.7
2017-Nov-16 17:30N 31°50' E 032°50'2117.8
2017-Nov-16 16:19N 31°38' E 032°30'617.2
2017-Nov-16 15:58N 31°35' E 032°24'816.5
2017-Nov-16 15:30N 31°27' E 032°25'713.7
2017-Nov-16 15:00N 31°20' E 032°23'611.4
2017-Nov-16 14:30N 31°15' E 032°22'2 4.3
2017-Nov-16 13:58N 31°12' E 032°21'0 0.1
2017-Nov-16 13:28N 31°12' E 032°21'0 0.0
2017-Nov-16 13:01N 31°12' E 032°21'0 0.0
2017-Nov-16 12:28N 31°12' E 032°21'0 0.0
2017-Nov-16 11:52N 31°12' E 032°21'0 0.0
2017-Nov-16 11:28N 31°12' E 032°21'0 0.0
2017-Nov-16 10:55N 31°12' E 032°21'0 0.0
2017-Nov-16 06:28N 31°12' E 032°21'0 0.0
2017-Nov-16 05:52N 31°12' E 032°21'0 0.0
2017-Nov-16 05:28N 31°12' E 032°21'0 0.0
2017-Nov-16 04:58N 31°12' E 032°21'0 0.0
2017-Nov-16 04:28N 31°12' E 032°21'0 0.0
2017-Nov-16 03:58N 31°12' E 032°21'0 0.0
2017-Nov-16 03:25N 31°12' E 032°21'18 1.5
2017-Nov-15 15:17N 30°55' E 032°19'3 9.8
2017-Nov-15 15:00N 30°52' E 032°19'  

Dump ship's entire track history